Time;durP1;ratioP1;P1;durP2;ratioP2;P2;SDS_P1;SDS_P2;PMS_P1;PMS_P2;Temp;Humidity;BMP_temperature;BMP_pressure;BME280_temperature;BME280_humidity;BME280_pressure;Samples;Min_cycle;Max_cycle;Signal;HPM_P1;HPM_P2
2024/04/03 10:03:36;;;;;;;4.80;1.50;;;;;;;12.94;59.81;98190.77;102180;1293;636232;-78
2024/04/03 10:06:10;;;;;;;10.60;1.90;;;;;;;13.04;59.89;98187.09;105401;1260;95280;-78
2024/04/03 10:08:39;;;;;;;2.40;1.70;;;;;;;13.15;59.28;98186.77;105325;1260;96129;-79
2024/04/03 10:11:11;;;;;;;2.80;1.30;;;;;;;13.13;59.02;98181.91;105340;1260;108087;-78
2024/04/03 10:13:40;;;;;;;3.20;1.40;;;;;;;13.10;58.97;98186.48;105380;1257;95225;-78
2024/04/03 10:16:13;;;;;;;4.50;1.50;;;;;;;13.02;58.52;98180.66;105351;1264;173453;-79
2024/04/03 10:18:51;;;;;;;3.00;1.20;;;;;;;12.95;58.62;98188.95;105473;1251;95193;-80
2024/04/03 10:21:20;;;;;;;4.50;1.60;;;;;;;12.91;58.50;98192.07;105429;1256;95265;-78
2024/04/03 10:23:50;;;;;;;3.90;1.30;;;;;;;12.87;58.69;98192.79;105642;1264;108527;-78
2024/04/03 10:26:20;;;;;;;3.60;1.40;;;;;;;12.89;58.80;98191.73;105654;1256;95340;-78
2024/04/03 10:28:49;;;;;;;2.60;1.30;;;;;;;12.97;58.77;98187.60;105494;1256;107100;-78
2024/04/03 10:31:19;;;;;;;3.10;1.30;;;;;;;13.09;58.61;98188.72;105549;1264;96597;-78
2024/04/03 10:33:51;;;;;;;1.80;1.20;;;;;;;13.22;58.47;98193.16;105394;1260;96601;-80
2024/04/03 10:36:19;;;;;;;3.10;1.40;;;;;;;13.31;58.18;98189.95;105585;1255;108770;-78
2024/04/03 10:38:47;;;;;;;2.80;1.30;;;;;;;13.34;58.17;98190.79;105605;1257;96677;-77
2024/04/03 10:41:15;;;;;;;2.40;1.20;;;;;;;13.42;58.33;98187.55;105540;1261;108220;-78
2024/04/03 10:43:43;;;;;;;3.50;1.30;;;;;;;13.52;57.96;98188.09;105545;1256;96693;-79
2024/04/03 10:46:13;;;;;;;2.70;1.30;;;;;;;13.60;57.78;98193.98;105317;1257;96623;-79
2024/04/03 10:48:45;;;;;;;2.10;1.40;;;;;;;13.62;57.12;98204.60;105338;1261;109218;-79
2024/04/03 10:51:12;;;;;;;3.10;1.30;;;;;;;13.62;56.74;98203.08;105524;1257;97819;-78
2024/04/03 10:53:40;;;;;;;2.80;1.40;;;;;;;13.62;56.78;98200.95;105253;1267;107780;-77
2024/04/03 10:56:09;;;;;;;3.30;1.20;;;;;;;13.64;56.55;98197.32;105192;1256;96635;-79
2024/04/03 10:58:39;;;;;;;2.60;1.30;;;;;;;13.72;56.74;98199.33;105431;1254;96425;-78
2024/04/03 11:01:13;;;;;;;4.00;1.30;;;;;;;13.79;56.76;98202.02;105272;1257;109065;-81
2024/04/03 11:03:45;;;;;;;5.30;1.40;;;;;;;13.84;56.74;98198.14;105381;1259;96677;-80
2024/04/03 11:06:12;;;;;;;2.40;1.30;;;;;;;13.86;56.36;98198.38;105342;1255;107104;-78
2024/04/03 11:08:40;;;;;;;4.00;1.50;;;;;;;13.85;56.30;98199.15;105461;1257;96643;-78
2024/04/03 11:11:09;;;;;;;2.50;1.40;;;;;;;13.89;56.38;98200.01;105436;1258;96931;-79
2024/04/03 11:13:37;;;;;;;2.90;1.30;;;;;;;13.92;56.27;98199.48;105371;1259;109878;-78
2024/04/03 11:16:08;;;;;;;4.00;1.40;;;;;;;13.93;55.95;98195.55;105368;1268;96697;-79
2024/04/03 11:18:36;;;;;;;4.20;1.60;;;;;;;13.94;55.86;98194.17;105054;1270;107804;-82
2024/04/03 11:21:05;;;;;;;4.30;1.80;;;;;;;13.95;55.90;98198.99;105460;1258;96696;-78
2024/04/03 11:23:37;;;;;;;5.50;1.70;;;;;;;13.98;55.56;98202.49;105027;1261;96619;-78
2024/04/03 11:26:06;;;;;;;3.60;1.40;;;;;;;13.99;55.81;98201.89;105322;1260;109729;-80
2024/04/03 11:28:34;;;;;;;1.90;1.10;;;;;;;14.00;55.56;98204.45;105169;1270;97538;-79
2024/04/03 11:31:02;;;;;;;2.80;1.30;;;;;;;13.95;55.22;98201.86;105154;1258;108001;-79
2024/04/03 11:33:31;;;;;;;3.80;1.20;;;;;;;13.93;55.06;98200.67;105227;1259;96694;-78
2024/04/03 11:35:59;;;;;;;4.90;1.90;;;;;;;13.96;55.22;98202.70;105519;1254;96604;-78
2024/04/03 11:38:30;;;;;;;2.30;1.50;;;;;;;14.03;55.27;98204.47;105206;1260;109735;-78
2024/04/03 11:40:59;;;;;;;2.30;1.30;;;;;;;14.11;55.38;98212.44;105386;1257;97576;-79
2024/04/03 11:43:26;;;;;;;1.80;1.10;;;;;;;14.17;55.05;98205.02;105425;1267;107681;-79
2024/04/03 11:45:54;;;;;;;4.10;1.50;;;;;;;14.21;55.03;98203.93;105107;1257;97525;-78
2024/04/03 11:48:25;;;;;;;2.70;1.40;;;;;;;14.21;55.16;98205.34;105586;1255;97353;-78
2024/04/03 11:50:54;;;;;;;3.70;1.40;;;;;;;14.23;55.11;98206.77;105285;1257;108705;-78
2024/04/03 11:53:21;;;;;;;3.30;1.30;;;;;;;14.22;54.70;98208.52;105117;1254;97964;-78
2024/04/03 11:55:49;;;;;;;5.00;2.00;;;;;;;14.18;54.55;98214.98;105325;1267;107619;-78
2024/04/03 11:58:17;;;;;;;5.20;1.70;;;;;;;14.18;54.50;98223.73;105262;1260;96642;-80
2024/04/03 12:00:44;;;;;;;3.40;1.30;;;;;;;14.18;53.66;98214.98;105162;1260;96712;-79
2024/04/03 12:03:12;;;;;;;1.90;1.30;;;;;;;14.22;53.65;98218.15;105048;1254;109771;-79
2024/04/03 12:05:40;;;;;;;4.00;1.60;;;;;;;14.27;53.79;98219.11;105134;1259;96719;-78
2024/04/03 12:08:07;;;;;;;4.00;1.40;;;;;;;14.34;53.07;98221.61;105314;1260;107483;-79
2024/04/03 12:10:37;;;;;;;2.40;1.20;;;;;;;14.34;52.25;98223.34;105251;1260;96652;-79
2024/04/03 12:13:07;;;;;;;3.80;1.60;;;;;;;14.33;52.20;98218.23;104988;1270;96656;-78
2024/04/03 12:15:35;;;;;;;2.20;1.30;;;;;;;14.33;52.03;98220.63;105314;1260;109897;-78
2024/04/03 12:18:09;;;;;;;1.70;1.10;;;;;;;14.28;51.93;98224.93;105126;1254;96589;-78
2024/04/03 12:20:40;;;;;;;3.00;1.30;;;;;;;14.27;51.93;98222.19;105232;1268;107437;-78
2024/04/03 12:23:08;;;;;;;3.20;1.40;;;;;;;14.29;51.72;98225.92;105218;1260;96652;-79
2024/04/03 12:25:36;;;;;;;3.30;1.70;;;;;;;14.36;51.50;98225.09;105303;1260;96703;-78
2024/04/03 12:28:03;;;;;;;2.20;1.20;;;;;;;14.41;51.49;98218.61;105051;1257;109514;-78
2024/04/03 12:30:31;;;;;;;3.50;1.50;;;;;;;14.50;51.47;98213.25;105100;1270;96623;-76
2024/04/03 12:33:00;;;;;;;4.10;1.40;;;;;;;14.58;51.32;98209.98;105351;1254;108349;-78
2024/04/03 12:35:29;;;;;;;3.20;1.30;;;;;;;14.67;51.63;98203.18;105268;1259;97304;-78
2024/04/03 12:37:58;;;;;;;3.90;1.50;;;;;;;14.78;51.69;98205.45;105200;1258;96624;-79
2024/04/03 12:40:29;;;;;;;2.30;1.20;;;;;;;14.82;51.20;98217.04;105196;1261;109534;-78
2024/04/03 12:42:57;;;;;;;4.10;1.60;;;;;;;14.76;50.98;98209.95;105137;1273;97443;-80
2024/04/03 12:45:24;;;;;;;3.40;1.30;;;;;;;14.72;51.03;98219.79;105166;1260;107275;-78
2024/04/03 12:47:52;;;;;;;2.50;1.20;;;;;;;14.65;50.54;98224.81;105421;1257;96626;-78
2024/04/03 12:50:23;;;;;;;3.10;1.50;;;;;;;14.65;50.45;98214.82;105044;1254;97969;-78
2024/04/03 12:52:52;;;;;;;5.20;1.40;;;;;;;14.74;50.48;98216.09;104861;1261;109401;-78
2024/04/03 12:55:20;;;;;;;4.60;1.50;;;;;;;14.85;50.56;98210.86;105304;1259;97552;-78
2024/04/03 12:57:49;;;;;;;2.60;1.50;;;;;;;14.90;49.98;98198.49;105049;1261;105654;-79
2024/04/03 13:00:17;;;;;;;3.50;1.60;;;;;;;14.96;49.95;98203.81;105205;1254;96627;-79
2024/04/03 13:02:44;;;;;;;3.00;1.30;;;;;;;15.02;49.65;98205.11;105555;1254;96712;-78
2024/04/03 13:05:20;;;;;;;3.40;0.80;;;;;;;15.07;48.35;98207.44;105295;1254;109866;-78
2024/04/03 13:07:56;;;;;;;3.20;1.20;;;;;;;15.08;48.33;98204.40;105114;1254;96712;-79
2024/04/03 13:10:25;;;;;;;3.10;1.30;;;;;;;15.09;47.65;98208.11;105291;1259;106864;-77
2024/04/03 13:12:52;;;;;;;4.60;1.30;;;;;;;15.09;47.26;98220.27;105257;1260;97903;-79
2024/04/03 13:15:20;;;;;;;2.30;1.10;;;;;;;15.14;47.08;98215.86;105250;1257;96706;-78
2024/04/03 13:17:48;;;;;;;2.60;1.00;;;;;;;15.13;47.40;98219.14;105113;1257;109773;-79
2024/04/03 13:20:16;;;;;;;4.20;1.20;;;;;;;15.02;46.95;98217.86;105334;1257;96626;-79
2024/04/03 13:22:43;;;;;;;2.20;1.40;;;;;;;14.92;47.41;98220.29;105135;1255;107645;-79
2024/04/03 13:25:11;;;;;;;2.80;1.60;;;;;;;14.82;47.23;98225.77;105126;1257;97560;-78
2024/04/03 13:27:39;;;;;;;4.30;1.60;;;;;;;14.73;47.20;98225.81;105404;1257;97809;-78
2024/04/03 13:30:07;;;;;;;3.40;1.20;;;;;;;14.67;47.29;98229.39;105392;1257;109808;-78
2024/04/03 13:32:34;;;;;;;3.40;1.30;;;;;;;14.64;47.33;98230.96;105316;1253;96629;-78
2024/04/03 13:35:03;;;;;;;3.10;1.40;;;;;;;14.62;47.27;98230.08;105025;1259;106836;-78
2024/04/03 13:37:30;;;;;;;2.80;1.40;;;;;;;14.62;46.97;98232.29;105375;1257;96616;-79
2024/04/03 13:39:58;;;;;;;3.50;0.90;;;;;;;14.62;46.94;98223.02;105374;1254;97472;-79
2024/04/03 13:42:27;;;;;;;2.10;1.30;;;;;;;14.69;46.90;98228.73;105229;1257;109433;-88
2024/04/03 13:44:55;;;;;;;4.20;1.20;;;;;;;14.72;47.05;98221.20;106078;1254;96631;-79
2024/04/03 13:47:22;;;;;;;2.30;1.30;;;;;;;14.78;47.18;98230.86;105688;1257;106524;-80
2024/04/03 13:49:50;;;;;;;3.60;1.70;;;;;;;14.78;46.64;98231.20;105184;1254;96712;-78
2024/04/03 13:52:19;;;;;;;1.90;1.30;;;;;;;14.82;46.26;98230.73;105361;1257;96714;-81
2024/04/03 13:54:47;;;;;;;2.50;1.40;;;;;;;14.94;46.29;98226.86;105112;1254;109147;-79
2024/04/03 13:57:15;;;;;;;5.20;1.60;;;;;;;15.00;46.21;98228.03;105296;1257;96598;-79
2024/04/03 13:59:43;;;;;;;3.40;1.30;;;;;;;14.99;46.29;98232.52;105211;1260;107258;-78
2024/04/03 14:02:11;;;;;;;2.10;1.00;;;;;;;14.97;46.14;98238.35;105348;1258;97935;-79
2024/04/03 14:04:40;;;;;;;2.20;1.00;;;;;;;14.97;46.04;98245.83;105428;1256;96636;-80
2024/04/03 14:07:10;;;;;;;3.00;1.30;;;;;;;14.99;46.41;98241.79;105331;1254;109966;-81
2024/04/03 14:09:40;;;;;;;4.00;1.30;;;;;;;15.00;45.77;98252.96;105213;1257;97565;-80
2024/04/03 14:12:09;;;;;;;3.30;1.30;;;;;;;14.97;45.28;98250.41;105532;1259;108125;-80
2024/04/03 14:14:43;;;;;;;3.50;1.20;;;;;;;14.97;45.63;98251.34;105010;1261;98072;-79
2024/04/03 14:17:11;;;;;;;1.70;1.20;;;;;;;15.00;45.29;98255.48;105253;1257;99236;-81
2024/04/03 14:19:38;;;;;;;5.20;1.40;;;;;;;15.01;45.36;98252.67;105129;1257;109909;-78
2024/04/03 14:22:06;;;;;;;2.40;1.10;;;;;;;15.04;45.50;98251.14;105418;1254;97897;-79
2024/04/03 14:24:34;;;;;;;2.80;1.10;;;;;;;15.03;45.05;98257.37;105212;1257;107752;-80
2024/04/03 14:27:02;;;;;;;3.40;1.70;;;;;;;15.00;44.77;98252.13;105140;1257;97954;-79
2024/04/03 14:29:31;;;;;;;2.60;1.30;;;;;;;15.00;44.84;98257.83;105324;1259;97989;-79
2024/04/03 14:31:59;;;;;;;3.30;1.50;;;;;;;15.04;44.75;98260.45;105343;1257;111116;-79
2024/04/03 14:34:27;;;;;;;3.20;1.00;;;;;;;15.05;44.39;98259.48;105015;1258;97999;-80
2024/04/03 14:36:58;;;;;;;3.80;1.40;;;;;;;15.07;44.48;98257.48;105424;1259;108971;-79
2024/04/03 14:39:27;;;;;;;2.20;1.00;;;;;;;15.08;44.58;98258.06;105393;1256;97983;-80
2024/04/03 14:41:55;;;;;;;2.20;1.10;;;;;;;15.10;44.57;98261.23;105216;1254;99276;-79
2024/04/03 14:44:22;;;;;;;3.10;1.40;;;;;;;15.10;44.56;98255.52;105055;1258;112551;-80
2024/04/03 14:46:50;;;;;;;1.40;1.10;;;;;;;15.09;44.64;98258.32;105852;1255;97884;-79
2024/04/03 14:49:18;;;;;;;2.40;1.40;;;;;;;15.07;44.62;98256.58;105065;1258;108009;-80
2024/04/03 14:51:46;;;;;;;2.60;1.50;;;;;;;15.06;44.63;98257.09;105402;1254;97975;-78
2024/04/03 14:54:21;;;;;;;2.80;1.20;;;;;;;15.06;44.69;98256.67;105596;1257;99186;-79
2024/04/03 14:56:50;;;;;;;2.80;1.50;;;;;;;15.05;44.61;98257.17;105163;1259;111405;-78
2024/04/03 14:59:18;;;;;;;4.00;1.80;;;;;;;15.04;44.68;98263.10;105371;1254;98115;-78
2024/04/03 15:01:50;;;;;;;3.30;1.30;;;;;;;15.05;44.74;98273.08;105214;1253;109553;-80
2024/04/03 15:04:18;;;;;;;2.70;1.30;;;;;;;15.05;44.77;98275.02;105344;1255;97968;-80
2024/04/03 15:06:46;;;;;;;4.00;1.70;;;;;;;15.01;44.82;98278.78;105431;1257;98528;-79
2024/04/03 15:09:17;;;;;;;2.20;1.20;;;;;;;14.95;44.76;98280.29;105276;1257;111052;-79
2024/04/03 15:11:45;;;;;;;2.10;1.20;;;;;;;14.88;44.73;98284.02;105317;1258;98073;-79
2024/04/03 15:14:16;;;;;;;4.10;1.50;;;;;;;14.84;44.76;98286.98;105156;1258;107548;-78
2024/04/03 15:16:44;;;;;;;2.60;1.60;;;;;;;14.82;44.77;98289.12;105340;1253;98057;-79
2024/04/03 15:19:12;;;;;;;6.60;1.80;;;;;;;14.83;44.77;98292.77;105491;1254;97923;-80
2024/04/03 15:21:40;;;;;;;2.80;1.40;;;;;;;14.84;44.83;98297.84;105263;1260;111229;-79
2024/04/03 15:24:09;;;;;;;4.50;1.60;;;;;;;14.84;44.61;98300.20;105258;1258;97998;-79
2024/04/03 15:26:36;;;;;;;3.20;1.30;;;;;;;14.80;44.58;98305.38;105059;1265;107349;-80
2024/04/03 15:29:04;;;;;;;3.60;1.80;;;;;;;14.73;44.59;98310.20;105046;1257;97987;-80
2024/04/03 15:31:32;;;;;;;3.70;1.70;;;;;;;14.66;44.71;98314.26;105310;1257;97962;-79
2024/04/03 15:33:59;;;;;;;3.00;1.40;;;;;;;14.61;44.64;98314.29;105202;1257;111264;-79
2024/04/03 15:36:27;;;;;;;6.80;2.20;;;;;;;14.57;44.46;98319.64;105297;1254;99275;-78
2024/04/03 15:38:55;;;;;;;10.60;6.30;;;;;;;14.56;44.45;98321.20;105014;1259;107270;-78
2024/04/03 15:41:23;;;;;;;20.50;10.30;;;;;;;14.54;44.56;98322.25;105295;1254;99156;-79
2024/04/03 15:43:51;;;;;;;20.40;9.70;;;;;;;14.50;44.72;98326.00;105343;1259;98476;-79
2024/04/03 15:46:19;;;;;;;9.40;4.70;;;;;;;14.46;44.74;98322.36;105328;1259;109986;-80
2024/04/03 15:48:49;;;;;;;5.80;3.00;;;;;;;14.42;44.89;98323.44;105251;1257;97999;-80
2024/04/03 15:51:17;;;;;;;3.80;2.00;;;;;;;14.39;44.77;98328.72;105180;1259;107549;-78
2024/04/03 15:53:49;;;;;;;4.20;1.70;;;;;;;14.36;44.77;98334.58;105295;1257;98005;-79
2024/04/03 15:56:18;;;;;;;3.00;1.90;;;;;;;14.33;44.77;98333.98;105237;1256;97987;-78
2024/04/03 15:58:51;;;;;;;3.60;1.70;;;;;;;14.29;44.83;98333.84;105171;1257;111223;-79
2024/04/03 16:01:19;;;;;;;3.90;2.30;;;;;;;14.25;44.86;98336.56;105297;1254;98487;-80
2024/04/03 16:03:46;;;;;;;6.20;2.80;;;;;;;14.20;45.01;98337.25;105228;1257;107347;-79
2024/04/03 16:06:14;;;;;;;4.30;2.10;;;;;;;14.15;44.99;98334.50;105082;1257;97965;-80
2024/04/03 16:08:42;;;;;;;3.70;2.00;;;;;;;14.09;45.03;98335.07;105165;1257;98027;-79
2024/04/03 16:11:10;;;;;;;4.70;2.20;;;;;;;14.05;45.11;98335.74;105589;1254;110714;-79
2024/04/03 16:13:38;;;;;;;5.40;2.00;;;;;;;14.00;45.21;98334.75;105506;1256;99295;-80
2024/04/03 16:16:06;;;;;;;5.40;2.50;;;;;;;13.95;45.24;98334.87;105697;1257;107454;-80
2024/04/03 16:18:34;;;;;;;4.60;2.30;;;;;;;13.90;45.29;98336.41;105317;1257;97998;-80
2024/04/03 16:21:01;;;;;;;4.30;2.10;;;;;;;13.85;45.30;98336.92;105230;1256;98083;-79
2024/04/03 16:23:29;;;;;;;7.40;2.20;;;;;;;13.79;45.38;98336.80;105356;1254;111477;-79
2024/04/03 16:25:57;;;;;;;4.40;2.20;;;;;;;13.73;45.42;98338.45;105386;1254;97978;-79
2024/04/03 16:28:29;;;;;;;4.40;2.40;;;;;;;13.66;45.47;98341.21;105383;1257;108276;-79
2024/04/03 16:30:57;;;;;;;3.50;2.10;;;;;;;13.60;45.54;98344.65;105308;1253;97989;-78
2024/04/03 16:33:26;;;;;;;4.60;2.30;;;;;;;13.55;45.60;98344.95;105329;1256;97989;-80
2024/04/03 16:35:56;;;;;;;5.90;2.30;;;;;;;13.52;45.74;98351.46;105051;1254;111278;-80
2024/04/03 16:38:25;;;;;;;5.50;2.50;;;;;;;13.50;45.72;98354.27;105301;1258;97920;-80
2024/04/03 16:40:53;;;;;;;5.20;2.80;;;;;;;13.48;45.85;98360.22;105141;1259;108122;-78
2024/04/03 16:43:21;;;;;;;3.90;2.30;;;;;;;13.45;45.87;98360.36;105260;1254;98051;-80
2024/04/03 16:45:58;;;;;;;3.80;2.20;;;;;;;13.42;45.98;98365.27;105141;1257;97977;-78
2024/04/03 16:48:26;;;;;;;9.30;3.00;;;;;;;13.40;45.88;98372.92;105576;1257;110888;-79
2024/04/03 16:50:54;;;;;;;5.00;2.70;;;;;;;13.38;46.05;98373.09;105111;1260;98042;-79
2024/04/03 16:53:22;;;;;;;6.80;3.00;;;;;;;13.36;46.09;98376.48;105048;1259;107679;-79
2024/04/03 16:55:56;;;;;;;7.90;3.60;;;;;;;13.35;46.10;98378.92;105300;1257;98057;-77
2024/04/03 16:58:27;;;;;;;7.80;2.70;;;;;;;13.32;46.24;98377.45;105256;1253;97980;-78
2024/04/03 17:01:02;;;;;;;7.70;3.70;;;;;;;13.29;46.18;98381.76;105340;1253;110313;-78
2024/04/03 17:03:30;;;;;;;8.00;3.40;;;;;;;13.28;46.27;98385.79;105331;1257;99228;-79
2024/04/03 17:05:58;;;;;;;8.30;3.20;;;;;;;13.27;46.35;98386.41;105414;1268;107766;-80
2024/04/03 17:08:26;;;;;;;7.90;3.50;;;;;;;13.26;46.43;98390.72;105752;1257;97968;-78
2024/04/03 17:10:54;;;;;;;6.80;3.10;;;;;;;13.25;46.37;98395.14;105245;1257;97898;-78
2024/04/03 17:13:21;;;;;;;8.70;2.90;;;;;;;13.22;46.40;98400.54;105399;1254;109600;-80
2024/04/03 17:15:49;;;;;;;5.80;3.10;;;;;;;13.21;46.62;98404.79;105295;1257;99391;-79
2024/04/03 17:18:17;;;;;;;11.30;4.20;;;;;;;13.19;46.61;98403.39;105281;1256;107588;-80
2024/04/03 17:20:45;;;;;;;8.80;3.80;;;;;;;13.15;46.65;98409.73;105304;1257;97999;-79
2024/04/03 17:23:13;;;;;;;8.70;4.40;;;;;;;13.13;46.71;98408.59;105365;1257;98070;-79
2024/04/03 17:38:50;;;;;;;9.00;4.80;;;;;;;12.99;47.07;98430.29;105200;1264;98122;-86
2024/04/03 17:41:30;;;;;;;49.70;21.20;;;;;;;13.03;47.24;98438.86;104563;1265;99155;-80
2024/04/03 17:44:05;;;;;;;58.00;24.00;;;;;;;13.04;47.27;98436.30;105648;1260;111500;-80
2024/04/03 17:46:37;;;;;;;33.40;15.70;;;;;;;13.04;47.29;98447.61;105856;1253;97983;-80
2024/04/03 17:49:09;;;;;;;19.70;8.10;;;;;;;13.04;47.43;98449.11;105247;1275;109498;-80
2024/04/03 17:51:44;;;;;;;32.10;15.10;;;;;;;13.03;47.46;98448.41;105473;1259;99279;-79
2024/04/03 17:54:18;;;;;;;39.40;19.60;;;;;;;13.02;47.54;98446.58;105622;1259;98085;-79
2024/04/03 17:56:49;;;;;;;64.00;29.90;;;;;;;13.01;47.58;98445.64;105046;1261;111487;-79
2024/04/03 17:59:20;;;;;;;58.10;27.50;;;;;;;13.01;47.63;98448.50;105135;1253;98085;-79
2024/04/03 18:01:51;;;;;;;357.20;194.50;;;;;;;13.00;47.62;98447.29;105522;1254;107748;-80
2024/04/03 18:04:20;;;;;;;396.50;205.20;;;;;;;12.99;47.71;98444.95;105278;1260;98062;-80
2024/04/03 18:07:01;;;;;;;320.20;150.00;;;;;;;12.97;47.78;98448.98;105428;1256;98101;-79
2024/04/03 18:09:53;;;;;;;148.40;71.30;;;;;;;12.94;48.03;98451.03;105075;1254;113030;-81
2024/04/03 18:12:21;;;;;;;80.40;39.30;;;;;;;12.90;47.91;98454.04;105372;1259;98133;-79
2024/04/03 18:14:51;;;;;;;56.10;25.40;;;;;;;12.86;47.87;98460.64;105584;1254;107525;-80
2024/04/03 18:17:19;;;;;;;42.30;20.70;;;;;;;12.84;48.04;98461.95;105467;1259;98087;-79
2024/04/03 18:19:55;;;;;;;30.10;14.60;;;;;;;12.83;48.00;98460.09;105728;1256;97927;-79
2024/04/03 18:22:42;;;;;;;25.20;11.40;;;;;;;12.79;48.09;98461.48;105471;1259;111419;-81
2024/04/03 18:25:55;;;;;;;24.00;11.80;;;;;;;12.75;48.21;98468.59;105470;1254;99373;-81
2024/04/03 18:28:44;;;;;;;34.70;16.70;;;;;;;12.73;48.24;98472.73;105633;1258;108090;-82
2024/04/03 18:31:51;;;;;;;;;;;;;;;;;;;;;
2024/04/03 18:34:42;;;;;;;18.00;9.40;;;;;;;12.67;48.37;98475.41;105863;1253;98051;-82
2024/04/03 18:37:13;;;;;;;11.60;6.50;;;;;;;12.64;48.44;98475.30;105707;1253;112720;-81
2024/04/03 18:39:56;;;;;;;10.70;5.50;;;;;;;12.63;48.46;98478.21;105177;1254;97965;-81
2024/04/03 18:43:03;;;;;;;12.20;7.20;;;;;;;12.61;48.37;98481.80;105936;1253;107359;-80
2024/04/03 18:50:40;;;;;;;13.90;6.60;;;;;;;12.55;48.93;98494.09;105429;1264;97997;-83
2024/04/03 18:53:46;;;;;;;;;;;;;;;12.51;48.82;98501.32;105383;1270;111456;-79
2024/04/03 19:00:10;;;;;;;20.20;9.80;;;;;;;12.45;48.81;98497.27;105029;1270;107696;-82
2024/04/03 19:03:58;;;;;;;27.80;15.00;;;;;;;12.44;49.01;98495.98;105213;1279;98012;-81
2024/04/03 19:08:50;;;;;;;;;;;;;;;;;;;;;
2024/04/03 19:12:47;;;;;;;29.30;15.10;;;;;;;12.44;48.94;98504.34;103326;1286;649614;-77
2024/04/03 19:16:08;;;;;;;26.20;11.60;;;;;;;12.41;48.99;98504.06;104725;1272;95205;-79
2024/04/03 19:18:44;;;;;;;22.80;9.50;;;;;;;12.40;49.08;98501.85;105866;1264;95238;-81
2024/04/03 19:21:37;;;;;;;18.50;8.40;;;;;;;12.40;49.33;98504.48;105410;1266;107725;-80
2024/04/03 19:24:13;;;;;;;19.50;9.70;;;;;;;12.40;49.21;98504.29;104376;1275;1255480;-78
2024/04/03 19:26:45;;;;;;;18.90;8.80;;;;;;;12.40;49.45;98504.50;104590;1265;724966;-79
2024/04/03 19:29:12;;;;;;;20.90;8.60;;;;;;;12.38;49.26;98509.08;105239;1263;95337;-81
2024/04/03 19:31:39;;;;;;;17.60;7.90;;;;;;;12.38;49.41;98514.63;105114;1257;95343;-80
2024/04/03 19:34:06;;;;;;;11.50;6.20;;;;;;;12.37;49.33;98517.36;105011;1257;96258;-78
2024/04/03 19:36:37;;;;;;;13.20;6.80;;;;;;;12.36;49.47;98515.84;105285;1264;95634;-79
2024/04/03 19:39:07;;;;;;;10.60;5.60;;;;;;;12.36;49.42;98512.13;105505;1261;108622;-78
2024/04/03 19:41:36;;;;;;;9.60;4.90;;;;;;;12.36;49.47;98512.98;105679;1262;96609;-79
2024/04/03 19:44:03;;;;;;;13.00;5.40;;;;;;;12.36;49.52;98514.73;105300;1263;97941;-79
2024/04/03 19:46:33;;;;;;;11.50;5.60;;;;;;;12.37;49.64;98515.79;104997;1261;96712;-76
2024/04/03 19:49:00;;;;;;;7.50;5.00;;;;;;;12.36;49.63;98524.35;104967;1263;96628;-78
2024/04/03 19:51:40;;;;;;;;;;;;;;;;;;;;;
2024/04/03 19:54:44;;;;;;;9.50;5.30;;;;;;;12.34;49.66;98533.30;105075;1263;97829;-81
2024/04/03 19:57:21;;;;;;;19.50;10.00;;;;;;;12.32;49.72;98536.94;105572;1262;96670;-77
2024/04/03 19:59:49;;;;;;;21.60;11.20;;;;;;;12.31;49.71;98541.88;104998;1262;96712;-77
2024/04/03 20:02:16;;;;;;;26.90;14.10;;;;;;;12.29;49.78;98544.00;105593;1256;96534;-75
2024/04/03 20:04:43;;;;;;;44.10;22.50;;;;;;;12.28;49.92;98546.43;105509;1262;98567;-75
2024/04/03 20:07:09;;;;;;;48.80;25.90;;;;;;;12.27;49.97;98551.27;105366;1269;96604;-76
2024/04/03 20:09:36;;;;;;;39.50;19.80;;;;;;;12.26;50.09;98551.89;105173;1261;96557;-80
2024/04/03 20:12:04;;;;;;;36.70;17.40;;;;;;;12.25;49.92;98553.11;105498;1263;96591;-82
2024/04/03 20:17:14;;;;;;;22.80;11.00;;;;;;;12.22;50.12;98552.44;103064;1292;651201;-82
2024/04/03 20:19:43;;;;;;;16.70;9.00;;;;;;;12.17;50.14;98558.39;104785;1273;95360;-79
2024/04/03 20:22:13;;;;;;;19.60;9.40;;;;;;;12.16;50.21;98562.57;105673;1269;96291;-83
2024/04/03 20:24:42;;;;;;;18.30;9.10;;;;;;;12.13;50.19;98562.45;105481;1260;108204;-83
2024/04/03 20:27:10;;;;;;;16.40;8.50;;;;;;;12.11;50.27;98567.39;105517;1267;95953;-83
2024/04/03 20:29:37;;;;;;;17.10;8.30;;;;;;;12.08;50.36;98566.42;105307;1257;723848;-83
2024/04/03 20:32:06;;;;;;;18.20;9.20;;;;;;;12.06;50.30;98570.13;105317;1267;95210;-81
2024/04/03 20:34:36;;;;;;;16.80;8.10;;;;;;;12.06;50.43;98575.00;105552;1258;95366;-81
2024/04/03 20:37:27;;;;;;;14.50;7.90;;;;;;;12.03;50.40;98576.69;105882;1263;108831;-83
2024/04/03 20:39:56;;;;;;;13.60;6.50;;;;;;;12.00;50.36;98579.39;105804;1263;95952;-82
2024/04/03 20:42:25;;;;;;;14.60;6.40;;;;;;;11.98;50.49;98576.49;105521;1266;108016;-81
2024/04/03 20:45:30;;;;;;;11.70;6.80;;;;;;;12.04;50.59;98582.24;104042;1283;650709;-80
2024/04/03 20:47:57;;;;;;;9.60;5.80;;;;;;;12.01;50.63;98586.55;104713;1275;95925;-81
2024/04/03 20:50:24;;;;;;;10.10;5.40;;;;;;;12.01;50.65;98585.01;105604;1257;95389;-81
2024/04/03 20:53:18;;;;;;;10.50;6.10;;;;;;;12.05;50.69;98583.73;102532;1292;636703;-81
2024/04/03 20:55:47;;;;;;;12.40;6.30;;;;;;;12.02;50.82;98584.75;105968;1263;95308;-79
2024/04/03 20:58:16;;;;;;;11.20;5.80;;;;;;;12.01;50.76;98586.45;105180;1260;95200;-81
2024/04/03 21:00:45;;;;;;;12.70;6.30;;;;;;;11.99;50.86;98589.95;106275;1265;108244;-81
2024/04/03 21:03:13;;;;;;;14.10;5.80;;;;;;;11.97;50.83;98594.25;105288;1268;95222;-83
2024/04/03 21:05:43;;;;;;;11.60;5.90;;;;;;;11.95;51.04;98588.33;104953;1257;662446;-82
2024/04/03 21:08:28;;;;;;;11.60;6.60;;;;;;;11.98;50.98;98588.99;102556;1289;637143;-82
2024/04/03 21:10:59;;;;;;;12.80;5.70;;;;;;;11.94;50.98;98596.58;106147;1268;95256;-80
2024/04/03 21:13:27;;;;;;;10.70;5.70;;;;;;;11.91;50.98;98599.32;105551;1267;95456;-81
2024/04/03 21:15:56;;;;;;;10.90;4.30;;;;;;;11.89;51.20;98601.29;105920;1267;109127;-82
2024/04/03 21:18:26;;;;;;;9.20;4.60;;;;;;;11.88;51.31;98600.08;105290;1267;98047;-79
2024/04/03 21:20:59;;;;;;;8.80;4.70;;;;;;;11.89;51.24;98597.73;105396;1256;634294;-81
2024/04/03 21:23:27;;;;;;;6.90;4.00;;;;;;;11.86;51.29;98600.84;107144;1253;95270;-81
2024/04/03 21:25:55;;;;;;;8.50;4.20;;;;;;;11.83;51.41;98603.73;105890;1253;95312;-81
2024/04/03 21:28:23;;;;;;;8.30;4.50;;;;;;;11.81;51.21;98608.13;105792;1253;108624;-82
2024/04/03 21:31:03;;;;;;;10.00;4.70;;;;;;;11.81;51.36;98610.51;106061;1254;96142;-81
2024/04/03 21:33:31;;;;;;;9.40;4.50;;;;;;;11.80;51.48;98610.79;105851;1270;107435;-82
2024/04/03 21:36:01;;;;;;;10.90;5.10;;;;;;;11.78;51.58;98610.18;105621;1256;96618;-84
2024/04/03 21:38:29;;;;;;;8.90;4.70;;;;;;;11.77;51.60;98612.02;105640;1260;96563;-81
2024/04/03 21:40:58;;;;;;;13.40;5.90;;;;;;;11.76;51.48;98614.08;105836;1260;109440;-80
2024/04/03 21:43:26;;;;;;;9.70;4.60;;;;;;;11.74;51.54;98621.88;105572;1256;96632;-81
2024/04/03 21:45:54;;;;;;;9.90;4.90;;;;;;;11.73;51.74;98620.23;105857;1261;108421;-80
2024/04/03 21:48:23;;;;;;;8.20;4.20;;;;;;;11.70;51.55;98622.38;106178;1255;97629;-81
2024/04/03 21:50:50;;;;;;;9.40;4.90;;;;;;;11.68;51.70;98623.46;106370;1261;96565;-82
2024/04/03 21:53:19;;;;;;;8.50;4.50;;;;;;;11.67;51.73;98629.06;105814;1264;112065;-80
2024/04/03 21:55:48;;;;;;;11.90;4.70;;;;;;;11.65;51.81;98628.34;105836;1260;96611;-80
2024/04/03 21:58:16;;;;;;;10.90;4.00;;;;;;;11.63;51.90;98628.33;105834;1258;107471;-81
2024/04/03 22:00:45;;;;;;;9.40;4.40;;;;;;;11.62;51.97;98628.23;105717;1264;96803;-81
2024/04/03 22:03:14;;;;;;;7.80;3.80;;;;;;;11.61;51.99;98633.30;106247;1263;96540;-82
2024/04/03 22:05:43;;;;;;;8.20;3.80;;;;;;;11.59;51.99;98633.42;105890;1260;110532;-82
2024/04/03 22:08:12;;;;;;;6.10;3.40;;;;;;;11.58;52.19;98633.15;105542;1260;96638;-81
2024/04/03 22:10:40;;;;;;;8.10;3.90;;;;;;;11.58;52.19;98635.17;105498;1263;107927;-82